Dobrodošli na spletni strani vremenske postaje Senovo. Vse informacije so informativnega značaja, saj vremenska postaja ni del državne mreže meteoroloških postaj. AKTUALNIH OBVESTIL NI.


Sneg/Led Od: 23-02-2018 00:00 Do: 23:59 Opozorilo za: Sneg/Led Stopnja: Rumena info button

Pogled proti Armezu več informacij Pogled proti Armezu


Lisca več informacij Lisca


Radar strel več informacij blitzortung!


opozorilo za sneg/led več informacij rain snow radar


Obiščite še:

Template documentation
and downloads

And another site



Weather Underground, zgodovina - Tekstovno

Dnevni povzetek za December 23, 2017 Enote:  Metrično    Angleško   Obe
« Predhodni Dan
Naslednji Dan »
Dnevni Tedenski Mesečni Letni Po meri
  Višja: Nižja: Povprečje:
Temperatura: -17.8 °C -19.8 °C -18.3 °C
Točka rosišča: -17.8 °C -20.4 °C -19.2 °C
Vlažnost: Humidity % 0 % 86 %
Hitrost vetra: 0 km/h 0 km/h 0.6 km/h
Sunki vetra: 0 km/h - -
Veter:- - SSW
Zračni tlak: 0 hPa 0 hPa -
Padavine: 0 mm    
Historical Graphs
 
 
Tabelarni podarki za December 23, 2017
Čas Temperatura Točka rosišča Zračni tlak Veter Hitrost vetra Sunki vetra Vlažnost Intenziteta padavin (urna)
-17.8 °C -17.8 °C 0 hPa Calm     Humidity % 0 mm
00:04 -19 °C -19.8 °C 34841.9 hPa Calm     90 % 0 mm
00:09 -19.1 °C -19.8 °C 34841.9 hPa Calm     90 % 0 mm
00:10 -19.1 °C -19.8 °C 34841.9 hPa Calm     90 % 0 mm
00:15 -19.1 °C -19.8 °C 34841.9 hPa Calm     90 % 0 mm
00:16 -19.1 °C -19.8 °C 34841.9 hPa Calm     90 % 0 mm
00:21 -19.1 °C -19.9 °C 34841.9 hPa Calm     90 % 0 mm
00:26 -19.1 °C -19.9 °C 34841.9 hPa Calm     90 % 0 mm
00:29 -19.2 °C -19.9 °C 34841.9 hPa Calm     90 % 0 mm
00:34 -19.2 °C -19.9 °C 34841.9 hPa Calm     90 % 0 mm
00:35 -19.2 °C -19.9 °C 34841.9 hPa Calm     90 % 0 mm
00:40 -19.2 °C -20 °C 34841.9 hPa Calm     90 % 0 mm
00:43 -19.2 °C -20 °C 34841.9 hPa Calm     90 % 0 mm
00:48 -19.3 °C -20.1 °C 34841.9 hPa Calm     90 % 0 mm
00:49 -19.3 °C -20.1 °C 34841.9 hPa Calm     90 % 0 mm
00:54 -19.3 °C -20.1 °C 34841.9 hPa Calm     90 % 0 mm
00:55 -19.3 °C -20.1 °C 34841.9 hPa Calm     90 % 0 mm
01:00 -19.3 °C -20.1 °C 34841.9 hPa Calm     90 % 0 mm
01:01 -19.3 °C -20.1 °C 34841.9 hPa Calm     90 % 0 mm
01:06 -19.3 °C -20.1 °C 34841.9 hPa Calm     90 % 0 mm
01:09 -19.3 °C -20.1 °C 34841.9 hPa Calm     90 % 0 mm
01:12 -19.3 °C -20.1 °C 34841.9 hPa Calm     90 % 0 mm
01:18 -19.3 °C -20.1 °C 34841.9 hPa Calm     90 % 0 mm
01:19 -19.3 °C -20.1 °C 34841.9 hPa Calm     90 % 0 mm
01:24 -19.3 °C -20.1 °C 34841.9 hPa Calm     90 % 0 mm
01:26 -19.3 °C -20.1 °C 34841.9 hPa Calm     90 % 0 mm
01:31 -19.4 °C -20.2 °C 34841.9 hPa Calm     90 % 0 mm
01:32 -19.4 °C -20.2 °C 34841.9 hPa Calm     90 % 0 mm
01:33 -19.4 °C -20.2 °C 34841.9 hPa Calm     90 % 0 mm
01:38 -19.4 °C -20.2 °C 34841.9 hPa Calm     91 % 0 mm
01:41 -19.4 °C -20.2 °C 34841.9 hPa Calm     91 % 0 mm
01:44 -19.4 °C -20.2 °C 34841.9 hPa Calm     91 % 0 mm
01:49 -19.4 °C -20.2 °C 34841.9 hPa Calm     91 % 0 mm
01:51 -19.4 °C -20.2 °C 34841.9 hPa Calm     91 % 0 mm
01:56 -19.4 °C -20.2 °C 34841.9 hPa Calm     91 % 0 mm
01:58 -19.4 °C -20.2 °C 34841.9 hPa Calm     91 % 0 mm
02:03 -19.5 °C -20.2 °C 34841.9 hPa Calm     91 % 0 mm
02:05 -17.8 °C -20.2 °C 0 hPa Calm     0 % 0 mm
02:10 -19.5 °C -20.2 °C 34841.9 hPa Calm     91 % 0 mm
02:13 -19.5 °C -20.2 °C 34841.9 hPa Calm     91 % 0 mm
02:18 -19.4 °C -20.2 °C 34841.9 hPa WSW 1.6 km/h 6.9 km/h 91 % 0 mm
02:23 -19.4 °C -20.2 °C 34841.9 hPa WSW 1.6 km/h 6.9 km/h 91 % 0 mm
02:27 -19.4 °C -20.2 °C 34841.9 hPa Calm     91 % 0 mm
02:29 -19.4 °C -20.2 °C 34875.8 hPa Calm     91 % 0 mm
02:33 -17.8 °C -20.2 °C 0 hPa Calm     0 % 0 mm
02:38 -19.4 °C -20.2 °C 34875.8 hPa Calm     91 % 0 mm
02:43 -19.4 °C -20.2 °C 34875.8 hPa Calm     91 % 0 mm
02:45 -19.4 °C -20.2 °C 34841.9 hPa Calm     91 % 0 mm
02:50 -19.5 °C -20.2 °C 34841.9 hPa Calm     91 % 0 mm
02:55 -19.5 °C -20.2 °C 34841.9 hPa Calm     91 % 0 mm
02:58 -19.6 °C -20.2 °C 34841.9 hPa Calm     91 % 0 mm
03:03 -19.6 °C -20.2 °C 34841.9 hPa Calm     91 % 0 mm
03:05 -19.6 °C -20.2 °C 34841.9 hPa Calm     91 % 0 mm
03:09 -19.6 °C -20.2 °C 34841.9 hPa Calm     91 % 0 mm
03:13 -19.6 °C -20.2 °C 34841.9 hPa Calm     92 % 0 mm
03:17 -19.6 °C -20.2 °C 34841.9 hPa Calm     92 % 0 mm
03:19 -19.6 °C -20.2 °C 34841.9 hPa Calm     92 % 0 mm
03:24 -19.6 °C -20.2 °C 34841.9 hPa Calm     92 % 0 mm
03:29 -19.7 °C -20.3 °C 34841.9 hPa Calm     92 % 0 mm
03:34 -19.7 °C -20.3 °C 34841.9 hPa Calm     92 % 0 mm
03:35 -19.7 °C -20.3 °C 34841.9 hPa Calm     92 % 0 mm
03:40 -19.7 °C -20.3 °C 34841.9 hPa Calm     92 % 0 mm
03:44 -19.7 °C -20.3 °C 34841.9 hPa Calm     92 % 0 mm
03:45 -19.7 °C -20.3 °C 34841.9 hPa Calm     92 % 0 mm
03:49 -19.7 °C -20.3 °C 34841.9 hPa Calm     92 % 0 mm
03:54 -19.8 °C -20.4 °C 34841.9 hPa Calm     92 % 0 mm
03:55 -19.8 °C -20.4 °C 34841.9 hPa Calm     92 % 0 mm
04:00 -19.8 °C -20.4 °C 34808.1 hPa Calm     92 % 0 mm
04:02 -19.8 °C -20.4 °C 34808.1 hPa Calm     92 % 0 mm
04:07 -19.8 °C -20.4 °C 34808.1 hPa SW 1 km/h 5.6 km/h 92 % 0 mm
04:08 -19.8 °C -20.4 °C 34808.1 hPa SW 1 km/h 5.6 km/h 92 % 0 mm
04:10 -19.8 °C -20.4 °C 34808.1 hPa SW 1 km/h 5.6 km/h 92 % 0 mm
04:14 -19.8 °C -20.4 °C 34808.1 hPa SW 1 km/h 5.6 km/h 92 % 0 mm
04:19 -19.8 °C -20.4 °C 34808.1 hPa Calm     92 % 0 mm
04:20 -19.8 °C -20.4 °C 34808.1 hPa Calm     92 % 0 mm
04:25 -19.8 °C -20.4 °C 34808.1 hPa Calm     92 % 0 mm
04:31 -19.7 °C -20.3 °C 34808.1 hPa Calm     92 % 0 mm
04:33 -19.7 °C -20.3 °C 34808.1 hPa Calm     92 % 0 mm
04:38 -19.7 °C -20.3 °C 34808.1 hPa Calm     92 % 0 mm
04:39 -19.7 °C -20.3 °C 34808.1 hPa Calm     92 % 0 mm
04:44 -19.7 °C -20.3 °C 34808.1 hPa Calm     92 % 0 mm
04:49 -19.6 °C -20.2 °C 34808.1 hPa Calm     92 % 0 mm
04:54 -19.6 °C -20.2 °C 34808.1 hPa Calm     92 % 0 mm
04:55 -19.6 °C -20.2 °C 34808.1 hPa Calm     92 % 0 mm
05:00 -19.6 °C -20.2 °C 34808.1 hPa Calm     92 % 0 mm
05:05 -19.6 °C -20.1 °C 34808.1 hPa Calm     93 % 0 mm
05:09 -19.5 °C -20.1 °C 34808.1 hPa Calm     93 % 0 mm
05:10 -19.5 °C -20.1 °C 34808.1 hPa Calm     93 % 0 mm
05:15 -19.5 °C -20.1 °C 34808.1 hPa Calm     93 % 0 mm
05:20 -19.4 °C -20 °C 34808.1 hPa Calm     93 % 0 mm
05:22 -19.4 °C -20 °C 34808.1 hPa Calm     93 % 0 mm
05:25 -19.4 °C -20 °C 34808.1 hPa Calm     92 % 0 mm
05:30 -19.4 °C -19.9 °C 34808.1 hPa Calm     93 % 0 mm
05:33 -19.3 °C -19.9 °C 34808.1 hPa Calm     93 % 0 mm
05:35 -19.3 °C -19.9 °C 34808.1 hPa Calm     93 % 0 mm
05:39 -19.3 °C -19.9 °C 34808.1 hPa Calm     93 % 0 mm
05:44 -19.3 °C -19.9 °C 34808.1 hPa Calm     93 % 0 mm
05:47 -19.3 °C -19.9 °C 34808.1 hPa Calm     93 % 0 mm
05:52 -19.3 °C -19.8 °C 34808.1 hPa Calm     93 % 0 mm
05:56 -19.3 °C -19.8 °C 34808.1 hPa Calm     93 % 0 mm
05:58 -19.2 °C -19.8 °C 34808.1 hPa Calm     93 % 0 mm
06:03 -19.2 °C -19.8 °C 34841.9 hPa Calm     93 % 0 mm
06:04 -19.2 °C -19.8 °C 34841.9 hPa Calm     93 % 0 mm
06:09 -19.2 °C -19.8 °C 34841.9 hPa Calm     93 % 0 mm
06:14 -19.2 °C -19.7 °C 34841.9 hPa Calm     93 % 0 mm
06:17 -19.2 °C -19.7 °C 34841.9 hPa Calm     93 % 0 mm
06:20 -19.2 °C -19.7 °C 34841.9 hPa Calm     93 % 0 mm
06:25 -19.2 °C -19.7 °C 34841.9 hPa Calm     93 % 0 mm
06:29 -19.2 °C -19.6 °C 34841.9 hPa Calm     94 % 0 mm
06:34 -19.2 °C -19.6 °C 34841.9 hPa Calm     94 % 0 mm
06:40 -19.2 °C -19.6 °C 34841.9 hPa Calm     94 % 0 mm
06:43 -19.2 °C -19.6 °C 34841.9 hPa Calm     94 % 0 mm
06:46 -19.2 °C -19.6 °C 34841.9 hPa Calm     94 % 0 mm
06:51 -19.2 °C -19.6 °C 34841.9 hPa Calm     94 % 0 mm
06:53 -19.2 °C -19.6 °C 34841.9 hPa Calm     94 % 0 mm
06:58 -19.2 °C -19.6 °C 34841.9 hPa Calm     94 % 0 mm
06:59 -19.2 °C -19.6 °C 34841.9 hPa Calm     94 % 0 mm
07:04 -19.2 °C -19.6 °C 34841.9 hPa Calm     94 % 0 mm
07:05 -19.2 °C -19.7 °C 34841.9 hPa Calm     94 % 0 mm
07:10 -19.2 °C -19.7 °C 34841.9 hPa Calm     94 % 0 mm
07:15 -19.2 °C -19.7 °C 34841.9 hPa SW 1.3 km/h 7.6 km/h 94 % 0 mm
07:18 -19.3 °C -19.8 °C 34841.9 hPa SW 2.3 km/h 7.6 km/h 94 % 0 mm
07:23 -19.3 °C -19.8 °C 34841.9 hPa SW 4.2 km/h 7.6 km/h 94 % 0 mm
07:28 -19.3 °C -19.8 °C 34841.9 hPa SW 1.3 km/h 5.6 km/h 94 % 0 mm
07:30 -19.3 °C -19.8 °C 34841.9 hPa SW 0.8 km/h 4.2 km/h 94 % 0 mm
07:35 -19.3 °C -19.8 °C 34841.9 hPa Calm     94 % 0 mm
07:37 -19.3 °C -19.8 °C 34841.9 hPa Calm     94 % 0 mm
07:42 -19.3 °C -19.8 °C 34841.9 hPa Calm     94 % 0 mm
07:44 -19.3 °C -19.8 °C 34841.9 hPa Calm     94 % 0 mm
07:45 -19.3 °C -19.8 °C 34841.9 hPa Calm     94 % 0 mm
07:50 -19.3 °C -19.8 °C 34841.9 hPa Calm     94 % 0 mm
07:53 -19.3 °C -19.8 °C 34841.9 hPa Calm     94 % 0 mm
07:58 -19.3 °C -19.8 °C 34808.1 hPa Calm     94 % 0 mm
07:59 -19.3 °C -19.8 °C 34808.1 hPa Calm     94 % 0 mm
08:00 -19.3 °C -19.8 °C 34808.1 hPa Calm     94 % 0 mm
08:05 -19.3 °C -19.8 °C 34808.1 hPa Calm     94 % 0 mm
08:06 -19.3 °C -19.8 °C 34808.1 hPa Calm     94 % 0 mm
08:11 -19.3 °C -19.8 °C 34808.1 hPa Calm     94 % 0 mm
08:14 -19.3 °C -19.8 °C 34841.9 hPa Calm     94 % 0 mm
08:15 -19.3 °C -19.8 °C 34841.9 hPa Calm     94 % 0 mm
08:20 -19.3 °C -19.8 °C 34841.9 hPa Calm     94 % 0 mm
08:26 -19.3 °C -19.8 °C 34841.9 hPa Calm     94 % 0 mm
08:30 -19.3 °C -19.8 °C 34841.9 hPa Calm     94 % 0 mm
08:35 -19.3 °C -19.8 °C 34841.9 hPa Calm     94 % 0 mm
08:40 -19.3 °C -19.8 °C 34841.9 hPa ENE 0.3 km/h 3.4 km/h 94 % 0 mm
08:41 -19.3 °C -19.8 °C 34841.9 hPa ENE 0.3 km/h 3.4 km/h 94 % 0 mm
08:46 -19.2 °C -19.7 °C 34841.9 hPa ENE 2.1 km/h 6.9 km/h 94 % 0 mm
08:47 -19.2 °C -19.7 °C 34841.9 hPa East 2.3 km/h 6.9 km/h 94 % 0 mm
08:52 -19.2 °C -19.6 °C 34841.9 hPa East 3.4 km/h 6.9 km/h 94 % 0 mm
08:54 -19.2 °C -19.7 °C 34841.9 hPa East 3.4 km/h 6.9 km/h 94 % 0 mm
08:59 -19.2 °C -19.6 °C 34841.9 hPa ESE 0.8 km/h 4.2 km/h 95 % 0 mm
09:00 -19.2 °C -19.6 °C 34841.9 hPa ESE 0.8 km/h 4.2 km/h 95 % 0 mm
09:04 -19.2 °C -19.6 °C 34841.9 hPa Calm     95 % 0 mm
09:09 -19.2 °C -19.6 °C 34841.9 hPa Calm     95 % 0 mm
09:14 -19.2 °C -19.6 °C 34841.9 hPa Calm     95 % 0 mm
09:15 -19.2 °C -19.6 °C 34841.9 hPa Calm     95 % 0 mm
09:18 -19.2 °C -19.6 °C 34841.9 hPa Calm     95 % 0 mm
09:23 -19.2 °C -19.6 °C 34841.9 hPa Calm     95 % 0 mm
09:25 -19.2 °C -19.6 °C 34841.9 hPa Calm     95 % 0 mm
09:30 -19.1 °C -19.5 °C 34841.9 hPa Calm     95 % 0 mm
09:35 -19.1 °C -19.5 °C 34841.9 hPa Calm     95 % 0 mm
09:36 -19.1 °C -19.5 °C 34841.9 hPa Calm     95 % 0 mm
09:41 -19.1 °C -19.4 °C 34841.9 hPa Calm     95 % 0 mm
09:46 -19.1 °C -19.4 °C 34841.9 hPa Calm     95 % 0 mm
09:48 -19.1 °C -19.4 °C 34841.9 hPa Calm     95 % 0 mm
09:52 -19.1 °C -19.4 °C 34841.9 hPa Calm     95 % 0 mm
09:55 -19 °C -19.4 °C 34841.9 hPa Calm     95 % 0 mm
10:00 -19 °C -19.4 °C 34841.9 hPa Calm     95 % 0 mm
10:04 -19 °C -19.4 °C 34841.9 hPa Calm     95 % 0 mm
10:09 -19 °C -19.4 °C 34841.9 hPa Calm     95 % 0 mm
10:14 -19 °C -19.4 °C 34841.9 hPa Calm     95 % 0 mm
10:15 -19 °C -19.4 °C 34841.9 hPa Calm     95 % 0 mm
10:17 -19 °C -19.4 °C 34841.9 hPa Calm     95 % 0 mm
10:22 -18.7 °C -19.1 °C 34841.9 hPa Calm     95 % 0 mm
10:25 -18.7 °C -19.1 °C 34841.9 hPa Calm     95 % 0 mm
10:30 -18.6 °C -19 °C 34841.9 hPa Calm     95 % 0 mm
10:33 -18.6 °C -19 °C 34841.9 hPa Calm     95 % 0 mm
10:37 -18.5 °C -18.9 °C 34841.9 hPa Calm     95 % 0 mm
10:38 -18.5 °C -18.9 °C 34841.9 hPa Calm     95 % 0 mm
10:44 -17.8 °C -18.8 °C 0 hPa Calm     0 % 0 mm
10:46 -17.8 °C -18.8 °C 34841.9 hPa Calm     0 % 0 mm
10:51 -18.3 °C -18.7 °C 34841.9 hPa Calm     95 % 0 mm
10:52 -18.3 °C -18.7 °C 34841.9 hPa Calm     95 % 0 mm
10:53 -18.2 °C -18.6 °C 34841.9 hPa Calm     95 % 0 mm
10:58 -18.2 °C -18.6 °C 34841.9 hPa Calm     95 % 0 mm
11:03 -18.1 °C -18.4 °C 34808.1 hPa SSE 3.7 km/h 6.9 km/h 96 % 0 mm
11:04 -18.1 °C -18.4 °C 34808.1 hPa SSE 3.9 km/h 6.9 km/h 96 % 0 mm
11:08 -18.1 °C -18.4 °C 34808.1 hPa SSE 3.1 km/h 6.9 km/h 96 % 0 mm
11:09 -18.1 °C -18.4 °C 34808.1 hPa SSE 2.9 km/h 6.9 km/h 96 % 0 mm
11:14 -18.1 °C -18.4 °C 34808.1 hPa SSE 1 km/h 5.1 km/h 96 % 0 mm
11:19 -17.9 °C -18.2 °C 34808.1 hPa SSE 0.8 km/h 6.4 km/h 96 % 0 mm
11:22 -17.9 °C -18.2 °C 34808.1 hPa SSE 1 km/h 6.4 km/h 96 % 0 mm
13:37 -17.8 °C -17 °C 0 hPa Calm     0 % 7.62 mm
13:44 -17.8 °C -16.9 °C 0 hPa Calm     0 % 7.62 mm
13:46 -17.8 °C -16.9 °C 34774.2 hPa SSW 5 km/h 7.6 km/h 0 % 7.62 mm
13:51 -14.8 °C -16.7 °C 34774.2 hPa SSE 6 km/h 8 km/h 78 % 7.62 mm
13:52 -14.8 °C -16.7 °C 34774.2 hPa South 5.1 km/h 8 km/h 78 % 7.62 mm
13:57 -14.7 °C -16.7 °C 34774.2 hPa SW 5.5 km/h 8.9 km/h 78 % 7.62 mm
13:58 -14.7 °C -16.7 °C 34774.2 hPa SW 5.5 km/h 8.9 km/h 78 % 7.62 mm
14:03 -14.7 °C -16.6 °C 34774.2 hPa SW 5.5 km/h 8.9 km/h 79 % 7.62 mm
14:08 -14.7 °C -16.6 °C 34774.2 hPa SW 3.7 km/h 7.6 km/h 79 % 7.62 mm
14:09 -14.7 °C -16.6 °C 34774.2 hPa SW 3.4 km/h 7.6 km/h 79 % 7.62 mm
14:14 -14.6 °C -16.4 °C 34740.4 hPa SSW 0.8 km/h 5.1 km/h 80 % 0 mm
14:16 -14.6 °C -16.3 °C 34740.4 hPa SSW 0.3 km/h 4.2 km/h 80 % 0 mm
14:21 -14.6 °C -16.3 °C 34740.4 hPa SSW 1 km/h 5.1 km/h 80 % 0 mm
14:22 -14.6 °C -16.3 °C 34740.4 hPa SSW 1 km/h 5.1 km/h 80 % 0 mm
14:25 -14.5 °C -16.3 °C 34740.4 hPa South 2.1 km/h 8 km/h 80 % 0 mm
14:29 -14.6 °C -16.2 °C 34740.4 hPa South 3.4 km/h 8.9 km/h 81 % 0 mm
14:30 -14.5 °C -16.2 °C 34740.4 hPa South 3.9 km/h 8.9 km/h 81 % 0 mm
14:35 -14.4 °C -16.2 °C 34740.4 hPa SSW 5.5 km/h 9.3 km/h 80 % 0 mm
14:37 -14.4 °C -16.2 °C 34740.4 hPa South 6.4 km/h 10.3 km/h 80 % 0 mm
14:42 -14.4 °C -16.1 °C 34740.4 hPa South 7.6 km/h 10.3 km/h 81 % 0 mm
14:43 -14.4 °C -16.1 °C 34740.4 hPa South 7.6 km/h 10.3 km/h 81 % 0 mm
14:46 -14.3 °C -16 °C 34774.2 hPa South 7.6 km/h 10.3 km/h 81 % 0 mm
14:48 -14.3 °C -16 °C 34774.2 hPa South 7.2 km/h 10.3 km/h 81 % 0 mm
14:53 -14.3 °C -15.9 °C 34774.2 hPa SSW 6.3 km/h 9.3 km/h 81 % 0 mm
14:58 -14.4 °C -16.1 °C 34774.2 hPa SSW 5.1 km/h 9.3 km/h 81 % 0 mm
15:00 -14.4 °C -16.1 °C 34774.2 hPa SSW 5 km/h 9.3 km/h 81 % 0 mm
15:05 -14.7 °C -16.4 °C 34774.2 hPa SSW 5.5 km/h 9.3 km/h 80 % 0 mm
15:06 -14.7 °C -16.4 °C 34774.2 hPa SSW 5.5 km/h 9.3 km/h 80 % 0 mm
15:11 -14.8 °C -16.6 °C 34774.2 hPa SSW 5.1 km/h 8 km/h 80 % 0 mm
15:12 -14.9 °C -16.6 °C 34774.2 hPa SW 5.5 km/h 8.9 km/h 80 % 0 mm
15:16 -15.1 °C -16.8 °C 34774.2 hPa WSW 5.6 km/h 8.9 km/h 80 % 0 mm
15:18 -15.1 °C -16.8 °C 34774.2 hPa WSW 5.6 km/h 8.9 km/h 80 % 0 mm
15:19 -15.1 °C -16.8 °C 34774.2 hPa WSW 5.6 km/h 8.9 km/h 80 % 0 mm
15:24 -15.3 °C -17.2 °C 34774.2 hPa West 1.6 km/h 3.7 km/h 79 % 0 mm
15:30 -17.8 °C -17.2 °C 0 hPa North 0.3 km/h   0 % 0 mm
15:31 -15.5 °C -17.3 °C 34774.2 hPa Calm     79 % 0 mm
15:32 -15.6 °C -17.4 °C 34774.2 hPa Calm     79 % 0 mm
15:37 -15.7 °C -17.5 °C 34774.2 hPa SW 0.8 km/h 3.4 km/h 79 % 0 mm
15:42 -15.8 °C -17.6 °C 34774.2 hPa SW 0.8 km/h 3.4 km/h 79 % 0 mm
15:43 -15.8 °C -17.6 °C 34774.2 hPa SW 0.8 km/h 3.4 km/h 79 % 0 mm
15:48 -15.9 °C -17.8 °C 34774.2 hPa Calm     79 % 0 mm
15:49 -16 °C -17.8 °C 34774.2 hPa Calm   5.1 km/h 79 % 0 mm
15:54 -16.1 °C -17.9 °C 34774.2 hPa NW 2.6 km/h 8 km/h 79 % 0 mm
15:55 -16.1 °C -17.9 °C 34774.2 hPa NW 2.9 km/h 8 km/h 79 % 0 mm
16:00 -16.2 °C -17.9 °C 34740.4 hPa NW 2.6 km/h 6.9 km/h 80 % 0 mm
16:05 -16.3 °C -18.1 °C 34740.4 hPa North 0.3 km/h   80 % 0 mm
16:06 -16.3 °C -18.1 °C 34740.4 hPa North 0.3 km/h   80 % 0 mm
16:11 -16.4 °C -18.1 °C 34740.4 hPa Calm     80 % 0 mm
16:14 -16.4 °C -18.2 °C 34774.2 hPa Calm     80 % 0 mm
16:19 -16.4 °C -18.2 °C 34774.2 hPa Calm     80 % 0 mm
16:22 -16.6 °C -18.3 °C 34774.2 hPa Calm     80 % 0 mm
16:27 -16.6 °C -18.3 °C 34774.2 hPa Calm     80 % 0 mm
16:28 -16.6 °C -18.3 °C 34774.2 hPa Calm     80 % 0 mm
16:33 -16.7 °C -18.4 °C 34740.4 hPa Calm     80 % 0 mm
16:34 -16.7 °C -18.3 °C 34740.4 hPa Calm     81 % 0 mm
16:39 -16.8 °C -18.4 °C 34740.4 hPa Calm     81 % 0 mm
16:42 -16.8 °C -18.4 °C 34740.4 hPa Calm     81 % 0 mm
16:43 -16.8 °C -18.4 °C 34740.4 hPa Calm     81 % 0 mm
16:48 -16.9 °C -18.5 °C 34740.4 hPa Calm     81 % 0 mm
16:53 -17 °C -18.6 °C 34740.4 hPa Calm     81 % 0 mm
16:54 -17 °C -18.6 °C 34740.4 hPa Calm     81 % 0 mm
16:55 -17 °C -18.6 °C 34740.4 hPa Calm     81 % 0 mm
17:00 -17.1 °C -18.6 °C 34774.2 hPa Calm     82 % 0 mm
17:05 -17.1 °C -18.7 °C 34774.2 hPa Calm     82 % 0 mm
17:09 -17.2 °C -18.7 °C 34774.2 hPa Calm     82 % 0 mm
17:13 -17.2 °C -18.7 °C 34740.4 hPa Calm     82 % 0 mm
17:14 -17.2 °C -18.7 °C 34740.4 hPa Calm     82 % 0 mm
17:23 -17.3 °C -18.8 °C 34740.4 hPa Calm     83 % 0 mm
17:29 -17.8 °C -18.8 °C 0 hPa Calm     0 % 0 mm
17:33 -17.8 °C -18.8 °C 34774.2 hPa Calm     0 % 0 mm
17:38 -17.8 °C -18.8 °C 0 hPa Calm     0 % 0 mm
17:41 -17.6 °C -19 °C 0 hPa Calm     83 % 0 mm
17:42 -17.6 °C -19 °C 0 hPa Calm     83 % 0 mm
17:47 -17.6 °C -19 °C 34774.2 hPa Calm     83 % 0 mm
17:48 -17.6 °C -19 °C 34774.2 hPa Calm     83 % 0 mm
17:53 -17.6 °C -19 °C 34774.2 hPa Calm     83 % 0 mm
17:54 -17.6 °C -19 °C 34774.2 hPa Calm     83 % 0 mm
17:59 -17.7 °C -19 °C 34740.4 hPa Calm     84 % 0 mm
18:02 -17.7 °C -19.1 °C 34740.4 hPa Calm     84 % 0 mm
18:04 -17.7 °C -19.1 °C 34740.4 hPa Calm     84 % 0 mm
18:08 -17.8 °C -19.1 °C 34740.4 hPa Calm     84 % 0 mm
18:13 -17.8 °C -19.1 °C 34740.4 hPa Calm     84 % 0 mm
18:18 -17.8 °C -19.2 °C 34774.2 hPa Calm   6.9 km/h 84 % 0 mm
18:19 -17.8 °C -19.2 °C 34774.2 hPa Calm   6.9 km/h 84 % 0 mm
18:23 -17.9 °C -19.2 °C 34774.2 hPa Calm   6.9 km/h 84 % 0 mm
18:29 -17.9 °C -19.3 °C 34740.4 hPa South 0.8 km/h 3.4 km/h 84 % 0 mm
18:34 -18 °C -19.2 °C 34740.4 hPa South 0.8 km/h 3.4 km/h 85 % 0 mm
18:37 -18 °C -19.2 °C 34740.4 hPa South 1 km/h 3.4 km/h 85 % 0 mm
18:42 -18.1 °C -19.3 °C 34740.4 hPa Calm     85 % 0 mm
18:47 -18.1 °C -19.3 °C 34740.4 hPa Calm     85 % 0 mm
18:48 -18.1 °C -19.3 °C 34740.4 hPa Calm     85 % 0 mm
18:53 -18.1 °C -19.3 °C 34740.4 hPa Calm     85 % 0 mm
18:54 -18.1 °C -19.3 °C 34740.4 hPa Calm     85 % 0 mm
18:59 -18.1 °C -19.3 °C 34740.4 hPa NNW 1 km/h 2.9 km/h 85 % 0 mm
19:04 -18.2 °C -19.4 °C 34740.4 hPa NNW 0.8 km/h 2.9 km/h 85 % 0 mm
19:08 -18.2 °C -19.3 °C 34740.4 hPa NNW 0.8 km/h 2.9 km/h 86 % 0 mm
19:10 -18.2 °C -19.3 °C 34740.4 hPa NNW 0.5 km/h 2.9 km/h 86 % 0 mm
19:14 -18.2 °C -19.3 °C 34774.2 hPa Calm     86 % 0 mm
19:16 -18.2 °C -19.3 °C 34774.2 hPa Calm     86 % 0 mm
19:21 -18.3 °C -19.4 °C 34774.2 hPa Calm     86 % 0 mm
19:23 -18.3 °C -19.4 °C 34774.2 hPa Calm     86 % 0 mm
19:28 -18.3 °C -19.4 °C 34740.4 hPa North 0.3 km/h   86 % 0 mm
19:31 -18.3 °C -19.4 °C 34740.4 hPa North 0.8 km/h   86 % 0 mm
19:36 -18.3 °C -19.4 °C 34740.4 hPa North 1.6 km/h   86 % 0 mm
19:41 -18.3 °C -19.4 °C 34740.4 hPa North 1.3 km/h   86 % 0 mm
19:42 -18.3 °C -19.3 °C 34740.4 hPa North 0.5 km/h   87 % 0 mm
19:43 -18.3 °C -19.3 °C 34740.4 hPa North 0.5 km/h   87 % 0 mm
19:48 -18.3 °C -19.3 °C 34774.2 hPa Calm     87 % 0 mm
19:49 -18.3 °C -19.3 °C 34774.2 hPa Calm     87 % 0 mm
19:54 -18.3 °C -19.4 °C 34774.2 hPa Calm     87 % 0 mm
19:59 -18.3 °C -19.4 °C 34774.2 hPa Calm     87 % 0 mm
20:00 -18.3 °C -19.4 °C 34774.2 hPa Calm     87 % 0 mm
20:05 -18.3 °C -19.4 °C 34774.2 hPa Calm     87 % 0 mm
20:06 -18.3 °C -19.4 °C 34774.2 hPa Calm     87 % 0 mm
20:10 -18.3 °C -19.3 °C 34774.2 hPa Calm     88 % 0 mm
20:12 -18.3 °C -19.3 °C 34774.2 hPa Calm     88 % 0 mm
20:17 -18.3 °C -19.3 °C 34774.2 hPa Calm     88 % 0 mm
20:19 -18.4 °C -19.3 °C 34774.2 hPa Calm     88 % 0 mm
20:21 -18.4 °C -19.3 °C 34774.2 hPa Calm     88 % 0 mm
20:26 -18.4 °C -19.3 °C 34774.2 hPa Calm     88 % 0 mm
20:28 -18.4 °C -19.3 °C 34774.2 hPa Calm     88 % 0 mm
20:33 -18.4 °C -19.4 °C 34774.2 hPa Calm     88 % 0 mm
20:36 -18.4 °C -19.4 °C 34774.2 hPa Calm     88 % 0 mm
20:37 -18.5 °C -19.5 °C 34774.2 hPa Calm     88 % 0 mm
20:42 -18.5 °C -19.5 °C 34774.2 hPa Calm     88 % 0 mm
20:44 -18.5 °C -19.5 °C 34774.2 hPa Calm     88 % 0 mm
20:48 -18.5 °C -19.5 °C 34774.2 hPa Calm     88 % 0 mm
20:50 -18.5 °C -19.5 °C 34774.2 hPa Calm     88 % 0 mm
20:54 -18.5 °C -19.5 °C 34774.2 hPa Calm     88 % 0 mm
20:56 -18.5 °C -19.5 °C 34774.2 hPa Calm     88 % 0 mm
21:01 -18.5 °C -19.4 °C 34774.2 hPa Calm     89 % 0 mm
21:03 -18.5 °C -19.4 °C 34774.2 hPa Calm     89 % 0 mm
21:08 -18.6 °C -19.4 °C 34774.2 hPa Calm     89 % 0 mm
21:13 -18.6 °C -19.4 °C 34774.2 hPa Calm     89 % 0 mm
21:14 -18.6 °C -19.4 °C 34774.2 hPa Calm     89 % 0 mm
21:19 -18.6 °C -19.4 °C 34774.2 hPa Calm     89 % 0 mm
21:24 -18.6 °C -19.5 °C 34774.2 hPa Calm     89 % 0 mm
21:25 -18.6 °C -19.5 °C 34774.2 hPa Calm     89 % 0 mm
21:30 -18.6 °C -19.5 °C 34774.2 hPa Calm     89 % 0 mm
21:34 -18.7 °C -19.6 °C 34774.2 hPa Calm     89 % 0 mm
21:37 -18.7 °C -19.6 °C 34774.2 hPa Calm     89 % 0 mm
21:42 -18.7 °C -19.6 °C 34774.2 hPa Calm     89 % 0 mm
21:44 -18.7 °C -19.6 °C 34774.2 hPa Calm     89 % 0 mm
21:49 -18.7 °C -19.6 °C 34774.2 hPa Calm     89 % 0 mm
21:50 -18.7 °C -19.6 °C 34774.2 hPa Calm     89 % 0 mm
21:55 -18.7 °C -19.6 °C 34774.2 hPa Calm     89 % 0 mm
21:58 -18.7 °C -19.6 °C 34774.2 hPa Calm     89 % 0 mm
22:03 -18.7 °C -19.6 °C 34774.2 hPa Calm     89 % 0 mm
22:06 -18.7 °C -19.6 °C 34774.2 hPa Calm     89 % 0 mm
22:11 -18.8 °C -19.7 °C 34774.2 hPa Calm     89 % 0 mm
22:12 -18.8 °C -19.7 °C 34774.2 hPa Calm     89 % 0 mm
22:17 -18.8 °C -19.7 °C 34774.2 hPa Calm     89 % 0 mm
22:22 -17.8 °C -19.7 °C 34774.2 hPa Calm     0 % 0 mm
22:27 -18.8 °C -19.6 °C 34774.2 hPa Calm     90 % 0 mm
22:29 -18.8 °C -19.6 °C 34774.2 hPa Calm     90 % 0 mm
22:30 -18.8 °C -19.6 °C 34774.2 hPa Calm     90 % 0 mm
22:35 -18.8 °C -19.6 °C 34774.2 hPa Calm     90 % 0 mm
22:38 -18.8 °C -19.6 °C 34774.2 hPa Calm     90 % 0 mm
22:43 -18.8 °C -19.6 °C 34774.2 hPa NW 0.5 km/h 6.4 km/h 90 % 0 mm
22:46 -18.8 °C -19.6 °C 34774.2 hPa NW 0.8 km/h 6.4 km/h 90 % 0 mm
22:50 -18.8 °C -19.6 °C 34774.2 hPa NW 0.8 km/h 6.4 km/h 90 % 0 mm
22:54 -18.8 °C -19.6 °C 34774.2 hPa Calm     90 % 0 mm
22:56 -18.8 °C -19.6 °C 34774.2 hPa Calm     90 % 0 mm
22:59 -18.8 °C -19.6 °C 34774.2 hPa Calm   5.1 km/h 90 % 0 mm
23:04 -18.8 °C -19.6 °C 34774.2 hPa NW 1 km/h 5.6 km/h 90 % 0 mm
23:05 -18.8 °C -19.6 °C 34774.2 hPa NW 1 km/h 5.6 km/h 90 % 0 mm
23:07 -18.7 °C -19.5 °C 34774.2 hPa NW 2.1 km/h 5.6 km/h 90 % 0 mm
23:10 -18.7 °C -19.5 °C 34774.2 hPa NW 1.8 km/h 5.6 km/h 90 % 0 mm
23:15 -18.7 °C -19.5 °C 34774.2 hPa North 0.8 km/h   90 % 0 mm
23:20 -18.7 °C -19.4 °C 34774.2 hPa Calm     90 % 0 mm
23:24 -18.7 °C -19.4 °C 34774.2 hPa Calm     90 % 0 mm
23:26 -18.6 °C -19.3 °C 34774.2 hPa SSW 0.5 km/h 5.1 km/h 91 % 0 mm
23:31 -18.6 °C -19.3 °C 34740.4 hPa SSW 1.3 km/h 5.1 km/h 91 % 0 mm
23:33 -18.6 °C -19.3 °C 34740.4 hPa SSW 1 km/h 5.1 km/h 91 % 0 mm
23:38 -18.7 °C -19.4 °C 34740.4 hPa Calm   4.2 km/h 91 % 0 mm
23:39 -18.7 °C -19.4 °C 34740.4 hPa Calm   4.2 km/h 91 % 0 mm
23:44 -18.6 °C -19.3 °C 34774.2 hPa Calm   4.2 km/h 91 % 0 mm
23:49 -18.7 °C -19.4 °C 34774.2 hPa NNW 0.5 km/h 2.9 km/h 91 % 0 mm
23:53 -18.7 °C -19.4 °C 34774.2 hPa NNW 0.5 km/h 3.4 km/h 91 % 0 mm
23:55 -18.7 °C -19.4 °C 34774.2 hPa NNW 1 km/h 3.4 km/h 91 % 0 mm
Vremenska postaja Senovo
Podatki zbrani iz Weather Underground - 3.25 mb

Script developed by  Jim McMurry - jmcmurry@mwt.net Adapted for the template by  Wim van der Kuil - Leuven-Template.eu

Vremenski podatki so objavljeni na:

European Weather Network

WeatherCloud

Weather Underground

AWEKAS

HAMweather, WeatherForYou, PWS Weather

MapView

Geostik

Slovenia weather network

Oprema, ki se uporablja:

Vremenski program
Cumulus

Vremenski server
Asus

Cumulus

Asus